sensor_id;sensor_type;location;lat;lon;timestamp;P1;durP1;ratioP1;P2;durP2;ratioP2
39654;SDS011;25336;59.944;11.010;2023-07-30T00:01:14;4.88;;;4.40;;
39654;SDS011;25336;59.944;11.010;2023-07-30T00:03:40;5.40;;;4.03;;
39654;SDS011;25336;59.944;11.010;2023-07-30T00:06:06;7.30;;;4.07;;
39654;SDS011;25336;59.944;11.010;2023-07-30T00:08:31;6.72;;;4.50;;
39654;SDS011;25336;59.944;11.010;2023-07-30T00:10:57;7.25;;;5.15;;
39654;SDS011;25336;59.944;11.010;2023-07-30T00:13:23;6.07;;;4.80;;
39654;SDS011;25336;59.944;11.010;2023-07-30T00:15:49;4.43;;;4.03;;
39654;SDS011;25336;59.944;11.010;2023-07-30T00:18:15;6.93;;;4.60;;
39654;SDS011;25336;59.944;11.010;2023-07-30T00:20:41;6.10;;;4.88;;
39654;SDS011;25336;59.944;11.010;2023-07-30T00:23:07;6.10;;;3.97;;
39654;SDS011;25336;59.944;11.010;2023-07-30T00:25:32;5.13;;;4.43;;
39654;SDS011;25336;59.944;11.010;2023-07-30T00:27:58;6.13;;;4.80;;
39654;SDS011;25336;59.944;11.010;2023-07-30T00:30:24;4.47;;;4.05;;
39654;SDS011;25336;59.944;11.010;2023-07-30T00:32:49;5.35;;;4.55;;
39654;SDS011;25336;59.944;11.010;2023-07-30T00:35:15;6.40;;;4.53;;
39654;SDS011;25336;59.944;11.010;2023-07-30T00:37:41;5.88;;;4.50;;
39654;SDS011;25336;59.944;11.010;2023-07-30T00:40:07;4.93;;;4.38;;
39654;SDS011;25336;59.944;11.010;2023-07-30T00:42:33;5.45;;;4.30;;
39654;SDS011;25336;59.944;11.010;2023-07-30T00:44:59;8.43;;;5.40;;
39654;SDS011;25336;59.944;11.010;2023-07-30T00:47:24;6.93;;;5.38;;
39654;SDS011;25336;59.944;11.010;2023-07-30T00:49:50;5.28;;;4.78;;
39654;SDS011;25336;59.944;11.010;2023-07-30T00:52:17;8.88;;;5.07;;
39654;SDS011;25336;59.944;11.010;2023-07-30T00:54:45;5.80;;;5.25;;
39654;SDS011;25336;59.944;11.010;2023-07-30T00:57:11;5.88;;;5.28;;
39654;SDS011;25336;59.944;11.010;2023-07-30T00:59:37;7.60;;;5.75;;
39654;SDS011;25336;59.944;11.010;2023-07-30T01:02:03;6.05;;;5.00;;
39654;SDS011;25336;59.944;11.010;2023-07-30T01:04:29;7.10;;;4.90;;
39654;SDS011;25336;59.944;11.010;2023-07-30T01:06:55;7.07;;;5.43;;
39654;SDS011;25336;59.944;11.010;2023-07-30T01:09:21;8.00;;;5.53;;
39654;SDS011;25336;59.944;11.010;2023-07-30T01:11:48;6.88;;;5.45;;
39654;SDS011;25336;59.944;11.010;2023-07-30T01:14:14;7.70;;;5.13;;
39654;SDS011;25336;59.944;11.010;2023-07-30T01:16:41;7.15;;;5.80;;
39654;SDS011;25336;59.944;11.010;2023-07-30T01:19:07;6.68;;;5.60;;
39654;SDS011;25336;59.944;11.010;2023-07-30T01:21:36;11.45;;;8.32;;
39654;SDS011;25336;59.944;11.010;2023-07-30T01:24:02;14.88;;;8.30;;
39654;SDS011;25336;59.944;11.010;2023-07-30T01:26:36;11.40;;;8.70;;
39654;SDS011;25336;59.944;11.010;2023-07-30T01:29:07;10.52;;;9.27;;
39654;SDS011;25336;59.944;11.010;2023-07-30T01:31:38;12.27;;;9.90;;
39654;SDS011;25336;59.944;11.010;2023-07-30T01:34:06;18.70;;;9.68;;
39654;SDS011;25336;59.944;11.010;2023-07-30T01:36:34;11.43;;;10.05;;
39654;SDS011;25336;59.944;11.010;2023-07-30T01:39:01;11.40;;;10.18;;
39654;SDS011;25336;59.944;11.010;2023-07-30T01:41:27;14.45;;;10.25;;
39654;SDS011;25336;59.944;11.010;2023-07-30T01:43:53;12.48;;;9.30;;
39654;SDS011;25336;59.944;11.010;2023-07-30T01:46:19;14.38;;;10.68;;
39654;SDS011;25336;59.944;11.010;2023-07-30T01:48:44;14.05;;;10.52;;
39654;SDS011;25336;59.944;11.010;2023-07-30T01:51:10;15.02;;;11.48;;
39654;SDS011;25336;59.944;11.010;2023-07-30T01:53:36;12.95;;;9.65;;
39654;SDS011;25336;59.944;11.010;2023-07-30T01:56:01;14.35;;;10.13;;
39654;SDS011;25336;59.944;11.010;2023-07-30T01:58:27;13.77;;;10.00;;
39654;SDS011;25336;59.944;11.010;2023-07-30T02:00:53;12.50;;;10.50;;
39654;SDS011;25336;59.944;11.010;2023-07-30T02:03:18;14.10;;;10.60;;
39654;SDS011;25336;59.944;11.010;2023-07-30T02:05:44;13.43;;;10.50;;
39654;SDS011;25336;59.944;11.010;2023-07-30T02:08:09;11.50;;;10.13;;
39654;SDS011;25336;59.944;11.010;2023-07-30T02:10:38;13.27;;;10.65;;
39654;SDS011;25336;59.944;11.010;2023-07-30T02:13:03;10.82;;;9.10;;
39654;SDS011;25336;59.944;11.010;2023-07-30T02:15:29;15.05;;;10.43;;
39654;SDS011;25336;59.944;11.010;2023-07-30T02:17:55;11.95;;;9.13;;
39654;SDS011;25336;59.944;11.010;2023-07-30T02:20:21;10.88;;;9.02;;
39654;SDS011;25336;59.944;11.010;2023-07-30T02:22:46;14.30;;;10.57;;
39654;SDS011;25336;59.944;11.010;2023-07-30T02:25:12;12.27;;;9.63;;
39654;SDS011;25336;59.944;11.010;2023-07-30T02:27:38;9.98;;;8.38;;
39654;SDS011;25336;59.944;11.010;2023-07-30T02:30:04;11.00;;;8.98;;
39654;SDS011;25336;59.944;11.010;2023-07-30T02:32:30;9.95;;;8.07;;
39654;SDS011;25336;59.944;11.010;2023-07-30T02:34:55;9.82;;;8.10;;
39654;SDS011;25336;59.944;11.010;2023-07-30T02:37:21;9.02;;;7.88;;
39654;SDS011;25336;59.944;11.010;2023-07-30T02:39:47;10.32;;;8.70;;
39654;SDS011;25336;59.944;11.010;2023-07-30T02:42:12;10.68;;;8.75;;
39654;SDS011;25336;59.944;11.010;2023-07-30T02:44:38;11.50;;;8.45;;
39654;SDS011;25336;59.944;11.010;2023-07-30T02:47:04;9.00;;;8.02;;
39654;SDS011;25336;59.944;11.010;2023-07-30T02:49:29;9.48;;;8.27;;
39654;SDS011;25336;59.944;11.010;2023-07-30T02:51:55;10.52;;;8.48;;
39654;SDS011;25336;59.944;11.010;2023-07-30T02:54:21;10.15;;;8.32;;
39654;SDS011;25336;59.944;11.010;2023-07-30T02:56:47;9.23;;;7.78;;
39654;SDS011;25336;59.944;11.010;2023-07-30T02:59:13;11.80;;;8.25;;
39654;SDS011;25336;59.944;11.010;2023-07-30T03:01:38;9.50;;;7.93;;
39654;SDS011;25336;59.944;11.010;2023-07-30T03:04:04;10.40;;;8.07;;
39654;SDS011;25336;59.944;11.010;2023-07-30T03:06:30;10.25;;;9.02;;
39654;SDS011;25336;59.944;11.010;2023-07-30T03:08:56;15.05;;;9.27;;
39654;SDS011;25336;59.944;11.010;2023-07-30T03:11:22;9.63;;;7.90;;
39654;SDS011;25336;59.944;11.010;2023-07-30T03:13:48;12.18;;;8.23;;
39654;SDS011;25336;59.944;11.010;2023-07-30T03:16:13;11.43;;;8.35;;
39654;SDS011;25336;59.944;11.010;2023-07-30T03:18:39;10.05;;;8.50;;
39654;SDS011;25336;59.944;11.010;2023-07-30T03:21:05;8.73;;;7.80;;
39654;SDS011;25336;59.944;11.010;2023-07-30T03:23:30;9.63;;;7.93;;
39654;SDS011;25336;59.944;11.010;2023-07-30T03:25:56;8.57;;;6.97;;
39654;SDS011;25336;59.944;11.010;2023-07-30T03:28:23;7.75;;;6.97;;
39654;SDS011;25336;59.944;11.010;2023-07-30T03:30:48;10.73;;;9.00;;
39654;SDS011;25336;59.944;11.010;2023-07-30T03:33:14;9.15;;;7.80;;
39654;SDS011;25336;59.944;11.010;2023-07-30T03:35:40;9.10;;;7.63;;
39654;SDS011;25336;59.944;11.010;2023-07-30T03:38:05;8.93;;;7.35;;
39654;SDS011;25336;59.944;11.010;2023-07-30T03:40:31;8.98;;;7.63;;
39654;SDS011;25336;59.944;11.010;2023-07-30T03:42:57;9.90;;;7.68;;
39654;SDS011;25336;59.944;11.010;2023-07-30T03:45:23;9.27;;;7.88;;
39654;SDS011;25336;59.944;11.010;2023-07-30T03:47:48;11.05;;;7.75;;
39654;SDS011;25336;59.944;11.010;2023-07-30T03:50:14;10.05;;;8.57;;
39654;SDS011;25336;59.944;11.010;2023-07-30T03:52:40;10.55;;;8.80;;
39654;SDS011;25336;59.944;11.010;2023-07-30T03:55:05;11.63;;;9.32;;
39654;SDS011;25336;59.944;11.010;2023-07-30T03:57:31;13.02;;;9.60;;
39654;SDS011;25336;59.944;11.010;2023-07-30T03:59:57;13.25;;;8.15;;
39654;SDS011;25336;59.944;11.010;2023-07-30T04:02:22;10.98;;;9.50;;
39654;SDS011;25336;59.944;11.010;2023-07-30T04:04:48;11.15;;;9.40;;
39654;SDS011;25336;59.944;11.010;2023-07-30T04:07:15;12.27;;;10.30;;
39654;SDS011;25336;59.944;11.010;2023-07-30T04:09:41;13.70;;;10.45;;
39654;SDS011;25336;59.944;11.010;2023-07-30T04:12:06;10.80;;;9.23;;
39654;SDS011;25336;59.944;11.010;2023-07-30T04:14:32;11.07;;;9.57;;
39654;SDS011;25336;59.944;11.010;2023-07-30T04:16:58;11.02;;;8.43;;
39654;SDS011;25336;59.944;11.010;2023-07-30T04:19:24;11.48;;;8.93;;
39654;SDS011;25336;59.944;11.010;2023-07-30T04:21:49;10.75;;;9.18;;
39654;SDS011;25336;59.944;11.010;2023-07-30T04:24:16;10.38;;;9.05;;
39654;SDS011;25336;59.944;11.010;2023-07-30T04:26:41;12.60;;;9.10;;
39654;SDS011;25336;59.944;11.010;2023-07-30T04:29:07;9.73;;;8.73;;
39654;SDS011;25336;59.944;11.010;2023-07-30T04:31:33;11.52;;;8.90;;
39654;SDS011;25336;59.944;11.010;2023-07-30T04:33:58;11.68;;;9.80;;
39654;SDS011;25336;59.944;11.010;2023-07-30T04:36:24;10.85;;;8.70;;
39654;SDS011;25336;59.944;11.010;2023-07-30T04:38:50;13.18;;;9.20;;
39654;SDS011;25336;59.944;11.010;2023-07-30T04:41:15;10.68;;;8.73;;
39654;SDS011;25336;59.944;11.010;2023-07-30T04:43:43;10.82;;;8.23;;
39654;SDS011;25336;59.944;11.010;2023-07-30T04:46:10;11.43;;;8.68;;
39654;SDS011;25336;59.944;11.010;2023-07-30T04:48:36;11.57;;;8.43;;
39654;SDS011;25336;59.944;11.010;2023-07-30T04:51:02;13.75;;;9.15;;
39654;SDS011;25336;59.944;11.010;2023-07-30T04:53:28;10.63;;;8.25;;
39654;SDS011;25336;59.944;11.010;2023-07-30T04:55:56;12.95;;;8.88;;
39654;SDS011;25336;59.944;11.010;2023-07-30T04:58:23;10.82;;;8.68;;
39654;SDS011;25336;59.944;11.010;2023-07-30T05:00:48;10.00;;;8.35;;
39654;SDS011;25336;59.944;11.010;2023-07-30T05:03:14;9.45;;;8.40;;
39654;SDS011;25336;59.944;11.010;2023-07-30T05:05:40;12.40;;;9.32;;
39654;SDS011;25336;59.944;11.010;2023-07-30T05:08:06;9.80;;;8.52;;
39654;SDS011;25336;59.944;11.010;2023-07-30T05:10:32;10.30;;;9.02;;
39654;SDS011;25336;59.944;11.010;2023-07-30T05:12:57;11.32;;;8.23;;
39654;SDS011;25336;59.944;11.010;2023-07-30T05:15:23;13.00;;;8.70;;
39654;SDS011;25336;59.944;11.010;2023-07-30T05:17:49;9.40;;;8.30;;
39654;SDS011;25336;59.944;11.010;2023-07-30T05:20:14;10.65;;;8.98;;
39654;SDS011;25336;59.944;11.010;2023-07-30T05:22:40;11.60;;;9.00;;
39654;SDS011;25336;59.944;11.010;2023-07-30T05:25:06;9.95;;;8.60;;
39654;SDS011;25336;59.944;11.010;2023-07-30T05:27:32;12.82;;;9.63;;
39654;SDS011;25336;59.944;11.010;2023-07-30T05:29:57;13.30;;;9.93;;
39654;SDS011;25336;59.944;11.010;2023-07-30T05:32:23;12.35;;;9.63;;
39654;SDS011;25336;59.944;11.010;2023-07-30T05:34:49;11.60;;;9.00;;
39654;SDS011;25336;59.944;11.010;2023-07-30T05:37:14;14.63;;;9.30;;
39654;SDS011;25336;59.944;11.010;2023-07-30T05:39:40;10.20;;;8.70;;
39654;SDS011;25336;59.944;11.010;2023-07-30T05:42:05;12.07;;;9.88;;
39654;SDS011;25336;59.944;11.010;2023-07-30T05:44:31;10.48;;;9.30;;
39654;SDS011;25336;59.944;11.010;2023-07-30T05:46:57;11.55;;;9.70;;
39654;SDS011;25336;59.944;11.010;2023-07-30T05:49:23;11.50;;;10.30;;
39654;SDS011;25336;59.944;11.010;2023-07-30T05:51:49;11.15;;;9.77;;
39654;SDS011;25336;59.944;11.010;2023-07-30T05:54:15;12.90;;;9.70;;
39654;SDS011;25336;59.944;11.010;2023-07-30T05:56:41;10.70;;;9.35;;
39654;SDS011;25336;59.944;11.010;2023-07-30T05:59:07;11.27;;;10.15;;
39654;SDS011;25336;59.944;11.010;2023-07-30T06:01:33;12.02;;;9.07;;
39654;SDS011;25336;59.944;11.010;2023-07-30T06:03:58;9.73;;;8.73;;
39654;SDS011;25336;59.944;11.010;2023-07-30T06:06:24;10.20;;;9.10;;
39654;SDS011;25336;59.944;11.010;2023-07-30T06:08:52;11.65;;;10.00;;
39654;SDS011;25336;59.944;11.010;2023-07-30T06:11:19;12.65;;;10.80;;
39654;SDS011;25336;59.944;11.010;2023-07-30T06:13:45;11.68;;;10.20;;
39654;SDS011;25336;59.944;11.010;2023-07-30T06:16:11;12.60;;;10.10;;
39654;SDS011;25336;59.944;11.010;2023-07-30T06:18:36;13.23;;;10.30;;
39654;SDS011;25336;59.944;11.010;2023-07-30T06:21:02;11.43;;;9.68;;
39654;SDS011;25336;59.944;11.010;2023-07-30T06:23:28;12.60;;;8.68;;
39654;SDS011;25336;59.944;11.010;2023-07-30T06:25:53;10.45;;;9.23;;
39654;SDS011;25336;59.944;11.010;2023-07-30T06:28:19;12.60;;;9.60;;
39654;SDS011;25336;59.944;11.010;2023-07-30T06:30:45;10.30;;;8.80;;
39654;SDS011;25336;59.944;11.010;2023-07-30T06:33:10;8.63;;;7.82;;
39654;SDS011;25336;59.944;11.010;2023-07-30T06:35:36;9.90;;;7.60;;
39654;SDS011;25336;59.944;11.010;2023-07-30T06:38:02;7.60;;;6.82;;
39654;SDS011;25336;59.944;11.010;2023-07-30T06:40:27;9.90;;;8.80;;
39654;SDS011;25336;59.944;11.010;2023-07-30T06:42:53;10.30;;;8.27;;
39654;SDS011;25336;59.944;11.010;2023-07-30T06:45:18;9.00;;;8.07;;
39654;SDS011;25336;59.944;11.010;2023-07-30T06:47:44;8.52;;;7.25;;
39654;SDS011;25336;59.944;11.010;2023-07-30T06:50:10;7.53;;;6.75;;
39654;SDS011;25336;59.944;11.010;2023-07-30T06:52:36;9.07;;;8.15;;
39654;SDS011;25336;59.944;11.010;2023-07-30T06:55:02;8.90;;;7.90;;
39654;SDS011;25336;59.944;11.010;2023-07-30T06:57:29;9.20;;;8.07;;
39654;SDS011;25336;59.944;11.010;2023-07-30T06:59:55;10.43;;;8.57;;
39654;SDS011;25336;59.944;11.010;2023-07-30T07:02:21;8.57;;;7.75;;
39654;SDS011;25336;59.944;11.010;2023-07-30T07:04:47;9.68;;;8.23;;
39654;SDS011;25336;59.944;11.010;2023-07-30T07:07:13;10.90;;;9.27;;
39654;SDS011;25336;59.944;11.010;2023-07-30T07:09:38;12.00;;;9.63;;
39654;SDS011;25336;59.944;11.010;2023-07-30T07:12:04;10.05;;;8.45;;
39654;SDS011;25336;59.944;11.010;2023-07-30T07:14:30;10.43;;;9.02;;
39654;SDS011;25336;59.944;11.010;2023-07-30T07:16:56;9.77;;;8.30;;
39654;SDS011;25336;59.944;11.010;2023-07-30T07:19:22;9.68;;;8.30;;
39654;SDS011;25336;59.944;11.010;2023-07-30T07:21:49;9.35;;;8.27;;
39654;SDS011;25336;59.944;11.010;2023-07-30T07:24:14;11.90;;;8.73;;
39654;SDS011;25336;59.944;11.010;2023-07-30T07:26:41;10.10;;;8.27;;
39654;SDS011;25336;59.944;11.010;2023-07-30T07:29:07;9.32;;;7.60;;
39654;SDS011;25336;59.944;11.010;2023-07-30T07:31:35;8.52;;;7.65;;
39654;SDS011;25336;59.944;11.010;2023-07-30T07:34:01;6.47;;;5.50;;
39654;SDS011;25336;59.944;11.010;2023-07-30T07:36:27;7.05;;;6.35;;
39654;SDS011;25336;59.944;11.010;2023-07-30T07:38:53;7.78;;;6.72;;
39654;SDS011;25336;59.944;11.010;2023-07-30T07:41:18;7.65;;;6.43;;
39654;SDS011;25336;59.944;11.010;2023-07-30T07:43:46;9.35;;;7.40;;
39654;SDS011;25336;59.944;11.010;2023-07-30T07:46:12;8.57;;;6.90;;
39654;SDS011;25336;59.944;11.010;2023-07-30T07:48:41;8.40;;;7.05;;
39654;SDS011;25336;59.944;11.010;2023-07-30T07:51:11;7.63;;;6.78;;
39654;SDS011;25336;59.944;11.010;2023-07-30T07:53:37;8.40;;;6.75;;
39654;SDS011;25336;59.944;11.010;2023-07-30T07:56:03;7.65;;;6.65;;
39654;SDS011;25336;59.944;11.010;2023-07-30T07:58:29;7.57;;;6.60;;
39654;SDS011;25336;59.944;11.010;2023-07-30T08:00:55;6.78;;;6.15;;
39654;SDS011;25336;59.944;11.010;2023-07-30T08:03:21;7.65;;;6.90;;
39654;SDS011;25336;59.944;11.010;2023-07-30T08:05:48;7.22;;;6.53;;
39654;SDS011;25336;59.944;11.010;2023-07-30T08:08:13;6.82;;;6.22;;
39654;SDS011;25336;59.944;11.010;2023-07-30T08:10:39;7.85;;;7.05;;
39654;SDS011;25336;59.944;11.010;2023-07-30T08:13:09;7.10;;;6.45;;
39654;SDS011;25336;59.944;11.010;2023-07-30T08:15:38;7.88;;;7.00;;
39654;SDS011;25336;59.944;11.010;2023-07-30T08:18:04;8.52;;;7.57;;
39654;SDS011;25336;59.944;11.010;2023-07-30T08:20:29;6.88;;;6.18;;
39654;SDS011;25336;59.944;11.010;2023-07-30T08:22:55;7.47;;;6.75;;
39654;SDS011;25336;59.944;11.010;2023-07-30T08:25:21;6.45;;;5.85;;
39654;SDS011;25336;59.944;11.010;2023-07-30T08:27:47;6.55;;;5.32;;
39654;SDS011;25336;59.944;11.010;2023-07-30T08:30:13;7.72;;;7.10;;
39654;SDS011;25336;59.944;11.010;2023-07-30T08:32:39;6.53;;;5.93;;
39654;SDS011;25336;59.944;11.010;2023-07-30T08:35:06;6.28;;;5.68;;
39654;SDS011;25336;59.944;11.010;2023-07-30T08:37:33;6.18;;;5.65;;
39654;SDS011;25336;59.944;11.010;2023-07-30T08:39:58;7.72;;;6.30;;
39654;SDS011;25336;59.944;11.010;2023-07-30T08:42:24;5.82;;;5.30;;
39654;SDS011;25336;59.944;11.010;2023-07-30T08:44:49;5.78;;;5.22;;
39654;SDS011;25336;59.944;11.010;2023-07-30T08:47:15;5.70;;;5.20;;
39654;SDS011;25336;59.944;11.010;2023-07-30T08:49:41;5.63;;;5.07;;
39654;SDS011;25336;59.944;11.010;2023-07-30T08:52:09;5.38;;;4.88;;
39654;SDS011;25336;59.944;11.010;2023-07-30T08:54:36;5.78;;;5.28;;
39654;SDS011;25336;59.944;11.010;2023-07-30T08:57:03;5.72;;;5.22;;
39654;SDS011;25336;59.944;11.010;2023-07-30T08:59:37;5.15;;;4.13;;
39654;SDS011;25336;59.944;11.010;2023-07-30T09:02:10;4.47;;;4.07;;
39654;SDS011;25336;59.944;11.010;2023-07-30T09:04:42;4.40;;;3.65;;
39654;SDS011;25336;59.944;11.010;2023-07-30T09:07:13;3.45;;;3.15;;
39654;SDS011;25336;59.944;11.010;2023-07-30T09:09:39;2.05;;;1.85;;
39654;SDS011;25336;59.944;11.010;2023-07-30T09:12:12;1.35;;;1.25;;
39654;SDS011;25336;59.944;11.010;2023-07-30T09:14:39;1.20;;;1.10;;
39654;SDS011;25336;59.944;11.010;2023-07-30T09:17:05;0.82;;;0.82;;
39654;SDS011;25336;59.944;11.010;2023-07-30T09:19:34;0.90;;;0.90;;
39654;SDS011;25336;59.944;11.010;2023-07-30T09:22:03;0.88;;;0.88;;
39654;SDS011;25336;59.944;11.010;2023-07-30T09:24:30;1.08;;;0.98;;
39654;SDS011;25336;59.944;11.010;2023-07-30T09:26:57;0.93;;;0.93;;
39654;SDS011;25336;59.944;11.010;2023-07-30T09:29:26;0.90;;;0.90;;
39654;SDS011;25336;59.944;11.010;2023-07-30T09:31:52;1.10;;;1.10;;
39654;SDS011;25336;59.944;11.010;2023-07-30T09:34:20;2.13;;;1.02;;
39654;SDS011;25336;59.944;11.010;2023-07-30T09:36:47;1.33;;;0.93;;
39654;SDS011;25336;59.944;11.010;2023-07-30T09:39:22;0.80;;;0.80;;
39654;SDS011;25336;59.944;11.010;2023-07-30T09:41:50;1.20;;;1.10;;
39654;SDS011;25336;59.944;11.010;2023-07-30T09:44:18;2.75;;;1.20;;
39654;SDS011;25336;59.944;11.010;2023-07-30T09:46:48;1.33;;;0.90;;
39654;SDS011;25336;59.944;11.010;2023-07-30T09:49:15;1.55;;;0.90;;
39654;SDS011;25336;59.944;11.010;2023-07-30T09:51:42;1.63;;;1.10;;
39654;SDS011;25336;59.944;11.010;2023-07-30T09:54:10;2.53;;;1.08;;
39654;SDS011;25336;59.944;11.010;2023-07-30T09:56:37;1.08;;;0.93;;
39654;SDS011;25336;59.944;11.010;2023-07-30T09:59:04;0.98;;;0.90;;
39654;SDS011;25336;59.944;11.010;2023-07-30T10:01:30;2.13;;;1.40;;
39654;SDS011;25336;59.944;11.010;2023-07-30T10:03:57;2.05;;;1.38;;
39654;SDS011;25336;59.944;11.010;2023-07-30T10:06:24;3.40;;;1.38;;
39654;SDS011;25336;59.944;11.010;2023-07-30T10:08:52;2.90;;;1.25;;
39654;SDS011;25336;59.944;11.010;2023-07-30T10:11:20;1.75;;;1.33;;
39654;SDS011;25336;59.944;11.010;2023-07-30T10:13:47;1.73;;;1.30;;
39654;SDS011;25336;59.944;11.010;2023-07-30T10:16:13;2.78;;;1.95;;
39654;SDS011;25336;59.944;11.010;2023-07-30T10:18:39;1.48;;;1.08;;
39654;SDS011;25336;59.944;11.010;2023-07-30T10:21:09;3.60;;;1.55;;
39654;SDS011;25336;59.944;11.010;2023-07-30T10:23:45;1.73;;;1.13;;
39654;SDS011;25336;59.944;11.010;2023-07-30T10:26:12;1.65;;;1.33;;
39654;SDS011;25336;59.944;11.010;2023-07-30T10:28:37;1.65;;;1.25;;
39654;SDS011;25336;59.944;11.010;2023-07-30T10:31:08;3.35;;;1.33;;
39654;SDS011;25336;59.944;11.010;2023-07-30T10:33:46;5.03;;;1.70;;
39654;SDS011;25336;59.944;11.010;2023-07-30T10:36:41;1.85;;;1.10;;
39654;SDS011;25336;59.944;11.010;2023-07-30T10:41:38;2.03;;;1.17;;
39654;SDS011;25336;59.944;11.010;2023-07-30T10:44:04;2.92;;;1.25;;
39654;SDS011;25336;59.944;11.010;2023-07-30T10:46:30;2.38;;;1.67;;
39654;SDS011;25336;59.944;11.010;2023-07-30T10:48:56;3.92;;;1.80;;
39654;SDS011;25336;59.944;11.010;2023-07-30T10:51:21;1.90;;;1.70;;
39654;SDS011;25336;59.944;11.010;2023-07-30T10:53:48;3.10;;;1.75;;
39654;SDS011;25336;59.944;11.010;2023-07-30T10:56:16;2.00;;;1.50;;
39654;SDS011;25336;59.944;11.010;2023-07-30T10:58:48;3.75;;;2.08;;
39654;SDS011;25336;59.944;11.010;2023-07-30T11:01:15;3.03;;;1.67;;
39654;SDS011;25336;59.944;11.010;2023-07-30T11:03:41;1.67;;;1.58;;
39654;SDS011;25336;59.944;11.010;2023-07-30T11:06:07;1.98;;;1.35;;
39654;SDS011;25336;59.944;11.010;2023-07-30T11:10:59;2.97;;;1.60;;
39654;SDS011;25336;59.944;11.010;2023-07-30T11:13:26;4.50;;;1.90;;
39654;SDS011;25336;59.944;11.010;2023-07-30T11:15:53;2.90;;;1.65;;
39654;SDS011;25336;59.944;11.010;2023-07-30T11:18:19;3.83;;;1.38;;
39654;SDS011;25336;59.944;11.010;2023-07-30T11:20:45;1.80;;;1.25;;
39654;SDS011;25336;59.944;11.010;2023-07-30T11:23:17;2.85;;;1.33;;
39654;SDS011;25336;59.944;11.010;2023-07-30T11:25:47;3.95;;;1.48;;
39654;SDS011;25336;59.944;11.010;2023-07-30T11:28:14;3.30;;;1.52;;
39654;SDS011;25336;59.944;11.010;2023-07-30T11:30:51;2.67;;;1.30;;
39654;SDS011;25336;59.944;11.010;2023-07-30T11:33:17;4.28;;;1.67;;
39654;SDS011;25336;59.944;11.010;2023-07-30T11:35:43;2.95;;;1.45;;
39654;SDS011;25336;59.944;11.010;2023-07-30T11:38:09;3.15;;;1.40;;
39654;SDS011;25336;59.944;11.010;2023-07-30T11:40:35;2.78;;;1.65;;
39654;SDS011;25336;59.944;11.010;2023-07-30T11:43:01;2.67;;;1.60;;
39654;SDS011;25336;59.944;11.010;2023-07-30T11:45:29;3.42;;;1.42;;
39654;SDS011;25336;59.944;11.010;2023-07-30T11:47:55;2.13;;;1.40;;
39654;SDS011;25336;59.944;11.010;2023-07-30T11:50:46;2.65;;;1.45;;
39654;SDS011;25336;59.944;11.010;2023-07-30T11:53:13;3.45;;;1.40;;
39654;SDS011;25336;59.944;11.010;2023-07-30T11:55:40;1.63;;;1.25;;
39654;SDS011;25336;59.944;11.010;2023-07-30T11:58:07;2.42;;;1.20;;
39654;SDS011;25336;59.944;11.010;2023-07-30T12:00:37;4.82;;;1.20;;
39654;SDS011;25336;59.944;11.010;2023-07-30T12:03:04;2.83;;;1.27;;
39654;SDS011;25336;59.944;11.010;2023-07-30T12:05:36;1.75;;;1.30;;
39654;SDS011;25336;59.944;11.010;2023-07-30T12:08:03;2.63;;;1.70;;
39654;SDS011;25336;59.944;11.010;2023-07-30T12:10:42;1.77;;;1.40;;
39654;SDS011;25336;59.944;11.010;2023-07-30T12:13:15;3.83;;;1.60;;
39654;SDS011;25336;59.944;11.010;2023-07-30T12:15:43;2.47;;;1.33;;
39654;SDS011;25336;59.944;11.010;2023-07-30T12:18:15;1.30;;;1.20;;
39654;SDS011;25336;59.944;11.010;2023-07-30T12:20:41;1.65;;;1.40;;
39654;SDS011;25336;59.944;11.010;2023-07-30T12:23:06;2.50;;;1.60;;
39654;SDS011;25336;59.944;11.010;2023-07-30T12:25:32;1.50;;;1.25;;
39654;SDS011;25336;59.944;11.010;2023-07-30T12:27:58;2.72;;;1.10;;
39654;SDS011;25336;59.944;11.010;2023-07-30T12:30:23;3.78;;;1.13;;
39654;SDS011;25336;59.944;11.010;2023-07-30T12:32:51;2.75;;;1.20;;
39654;SDS011;25336;59.944;11.010;2023-07-30T12:35:17;2.70;;;1.55;;
39654;SDS011;25336;59.944;11.010;2023-07-30T12:37:42;1.65;;;1.13;;
39654;SDS011;25336;59.944;11.010;2023-07-30T12:40:08;1.50;;;1.40;;
39654;SDS011;25336;59.944;11.010;2023-07-30T12:42:35;2.47;;;1.45;;
39654;SDS011;25336;59.944;11.010;2023-07-30T12:45:01;4.78;;;1.90;;
39654;SDS011;25336;59.944;11.010;2023-07-30T12:47:26;2.30;;;1.58;;
39654;SDS011;25336;59.944;11.010;2023-07-30T12:49:52;1.50;;;1.35;;
39654;SDS011;25336;59.944;11.010;2023-07-30T12:52:18;2.63;;;1.65;;
39654;SDS011;25336;59.944;11.010;2023-07-30T12:54:43;2.35;;;1.35;;
39654;SDS011;25336;59.944;11.010;2023-07-30T12:57:10;1.42;;;1.17;;
39654;SDS011;25336;59.944;11.010;2023-07-30T12:59:35;1.92;;;1.52;;
39654;SDS011;25336;59.944;11.010;2023-07-30T13:02:01;2.38;;;1.23;;
39654;SDS011;25336;59.944;11.010;2023-07-30T13:04:27;5.25;;;1.67;;
39654;SDS011;25336;59.944;11.010;2023-07-30T13:06:53;3.33;;;1.30;;
39654;SDS011;25336;59.944;11.010;2023-07-30T13:09:19;2.70;;;1.38;;
39654;SDS011;25336;59.944;11.010;2023-07-30T13:11:45;2.33;;;1.40;;
39654;SDS011;25336;59.944;11.010;2023-07-30T13:14:11;6.28;;;1.08;;
39654;SDS011;25336;59.944;11.010;2023-07-30T13:16:36;3.53;;;1.17;;
39654;SDS011;25336;59.944;11.010;2023-07-30T13:19:02;3.80;;;1.52;;
39654;SDS011;25336;59.944;11.010;2023-07-30T13:21:28;3.33;;;1.80;;
39654;SDS011;25336;59.944;11.010;2023-07-30T13:23:53;2.25;;;1.13;;
39654;SDS011;25336;59.944;11.010;2023-07-30T13:26:19;2.53;;;1.48;;
39654;SDS011;25336;59.944;11.010;2023-07-30T13:28:45;1.60;;;1.00;;
39654;SDS011;25336;59.944;11.010;2023-07-30T13:31:11;3.50;;;1.33;;
39654;SDS011;25336;59.944;11.010;2023-07-30T13:33:36;3.38;;;1.48;;
39654;SDS011;25336;59.944;11.010;2023-07-30T13:36:02;3.58;;;1.60;;
39654;SDS011;25336;59.944;11.010;2023-07-30T13:38:29;2.75;;;1.20;;
39654;SDS011;25336;59.944;11.010;2023-07-30T13:40:54;2.42;;;1.15;;
39654;SDS011;25336;59.944;11.010;2023-07-30T13:43:20;2.20;;;1.40;;
39654;SDS011;25336;59.944;11.010;2023-07-30T13:45:45;1.80;;;1.33;;
39654;SDS011;25336;59.944;11.010;2023-07-30T13:48:15;3.38;;;1.45;;
39654;SDS011;25336;59.944;11.010;2023-07-30T13:50:44;3.97;;;1.70;;
39654;SDS011;25336;59.944;11.010;2023-07-30T13:53:10;3.00;;;1.02;;
39654;SDS011;25336;59.944;11.010;2023-07-30T13:55:35;2.75;;;1.27;;
39654;SDS011;25336;59.944;11.010;2023-07-30T13:58:01;3.78;;;1.40;;
39654;SDS011;25336;59.944;11.010;2023-07-30T14:00:28;2.63;;;1.33;;
39654;SDS011;25336;59.944;11.010;2023-07-30T14:02:54;2.72;;;1.38;;
39654;SDS011;25336;59.944;11.010;2023-07-30T14:05:20;5.80;;;1.13;;
39654;SDS011;25336;59.944;11.010;2023-07-30T14:07:45;2.13;;;0.80;;
39654;SDS011;25336;59.944;11.010;2023-07-30T14:10:11;2.22;;;0.80;;
39654;SDS011;25336;59.944;11.010;2023-07-30T14:12:37;1.60;;;0.90;;
39654;SDS011;25336;59.944;11.010;2023-07-30T14:15:03;0.70;;;0.70;;
39654;SDS011;25336;59.944;11.010;2023-07-30T14:17:29;0.80;;;0.63;;
39654;SDS011;25336;59.944;11.010;2023-07-30T14:19:55;1.63;;;0.70;;
39654;SDS011;25336;59.944;11.010;2023-07-30T14:22:21;0.80;;;0.80;;
39654;SDS011;25336;59.944;11.010;2023-07-30T14:24:46;0.80;;;0.80;;
39654;SDS011;25336;59.944;11.010;2023-07-30T14:27:12;0.98;;;0.60;;
39654;SDS011;25336;59.944;11.010;2023-07-30T14:29:38;1.30;;;0.80;;